WZZ335 LIEO-LIPZ
Flight info
| Callsign | WZZ335 |
|---|---|
| Flight time | N/A |
| Altitude | 32000 |
| Route | BATOX6K/05 BATOX DCT DEDOM DCT NUKNI DCT BIKTU DCT PELEG DCT SUKOM Q125 NIMUM Z43 OTGIG |
| Aircraft | A320/M-SDE3FGHIRWY/LB1 |
Departure
| Time | N/A |
|---|---|
| Airport | Olbia Costa Smeralda Airport (LIEO) |
Arrival
| Time | 2026-04-28 19:42 |
|---|---|
| Airport | Venice Marco Polo Airport (LIPZ) |
| Time | Latitude | Longitude | Altitude | Speed | Heading |
|---|---|---|---|---|---|
| 2026-04-28 19:21 | 44.04256 | 11.57440 | 18061 ft | 408 kts | 27° |
| 2026-04-28 19:21 | 44.06390 | 11.59252 | 18061 ft | 409 kts | 30° |
| 2026-04-28 19:21 | 44.07754 | 11.60452 | 18060 ft | 409 kts | 31° |
| 2026-04-28 19:22 | 44.09987 | 11.62412 | 18062 ft | 409 kts | 30° |
| 2026-04-28 19:22 | 44.11623 | 11.63839 | 18059 ft | 410 kts | 30° |
| 2026-04-28 19:22 | 44.14823 | 11.66618 | 18054 ft | 410 kts | 30° |
| 2026-04-28 19:22 | 44.17241 | 11.68712 | 18050 ft | 410 kts | 30° |
| 2026-04-28 19:23 | 44.19758 | 11.70534 | 18051 ft | 407 kts | 20° |
| 2026-04-28 19:23 | 44.22442 | 11.71771 | 18048 ft | 405 kts | 11° |
| 2026-04-28 19:23 | 44.25234 | 11.72403 | 18053 ft | 414 kts | 2° |
| 2026-04-28 19:23 | 44.28162 | 11.72397 | 18052 ft | 427 kts | 353° |
| 2026-04-28 19:24 | 44.31113 | 11.71888 | 18047 ft | 431 kts | 353° |
| 2026-04-28 19:24 | 44.34128 | 11.72110 | 18054 ft | 436 kts | 7° |
| 2026-04-28 19:24 | 44.37115 | 11.72850 | 18050 ft | 436 kts | 8° |
| 2026-04-28 19:24 | 44.40097 | 11.73606 | 18101 ft | 437 kts | 7° |
| 2026-04-28 19:25 | 44.43107 | 11.74377 | 18035 ft | 440 kts | 7° |
| 2026-04-28 19:25 | 44.46130 | 11.75152 | 18057 ft | 441 kts | 7° |
| 2026-04-28 19:25 | 44.49144 | 11.75926 | 18058 ft | 441 kts | 7° |
| 2026-04-28 19:25 | 44.52167 | 11.76700 | 18059 ft | 441 kts | 7° |
| 2026-04-28 19:26 | 44.55139 | 11.77461 | 18061 ft | 441 kts | 7° |
| 2026-04-28 19:26 | 44.58159 | 11.78233 | 18055 ft | 441 kts | 7° |
| 2026-04-28 19:26 | 44.61216 | 11.79015 | 18058 ft | 440 kts | 7° |
| 2026-04-28 19:26 | 44.64220 | 11.79780 | 17619 ft | 436 kts | 7° |
| 2026-04-28 19:27 | 44.67211 | 11.80543 | 16427 ft | 438 kts | 8° |
| 2026-04-28 19:27 | 44.70186 | 11.81304 | 15614 ft | 431 kts | 8° |
| 2026-04-28 19:27 | 44.73129 | 11.82062 | 14783 ft | 427 kts | 8° |
| 2026-04-28 19:27 | 44.76041 | 11.82808 | 13948 ft | 424 kts | 8° |
| 2026-04-28 19:28 | 44.78931 | 11.83549 | 13097 ft | 421 kts | 9° |
| 2026-04-28 19:28 | 44.81792 | 11.84284 | 12339 ft | 415 kts | 9° |
| 2026-04-28 19:28 | 44.84617 | 11.85010 | 11631 ft | 410 kts | 9° |
| 2026-04-28 19:28 | 44.87394 | 11.85722 | 11252 ft | 397 kts | 9° |
| 2026-04-28 19:29 | 44.90043 | 11.86405 | 11126 ft | 376 kts | 9° |
| 2026-04-28 19:29 | 44.91718 | 11.86839 | 11045 ft | 364 kts | 9° |
| 2026-04-28 19:29 | 44.94955 | 11.87672 | 10882 ft | 343 kts | 9° |
| 2026-04-28 19:29 | 44.97260 | 11.88264 | 10760 ft | 330 kts | 9° |
| 2026-04-28 19:30 | 44.99450 | 11.88829 | 10642 ft | 318 kts | 9° |
| 2026-04-28 19:30 | 45.01589 | 11.89383 | 10522 ft | 308 kts | 9° |
| 2026-04-28 19:30 | 45.03669 | 11.89923 | 10348 ft | 300 kts | 9° |
| 2026-04-28 19:30 | 45.05695 | 11.90449 | 10224 ft | 294 kts | 9° |
| 2026-04-28 19:31 | 45.07710 | 11.90973 | 10135 ft | 294 kts | 9° |
| 2026-04-28 19:31 | 45.09721 | 11.91498 | 9967 ft | 295 kts | 9° |
| 2026-04-28 19:31 | 45.11784 | 11.92036 | 9160 ft | 308 kts | 9° |
| 2026-04-28 19:31 | 45.13891 | 11.92585 | 8611 ft | 301 kts | 9° |
| 2026-04-28 19:32 | 45.15882 | 11.93107 | 8441 ft | 281 kts | 9° |
| 2026-04-28 19:32 | 45.17681 | 11.93905 | 8317 ft | 263 kts | 25° |
| 2026-04-28 19:32 | 45.19190 | 11.95278 | 7947 ft | 257 kts | 40° |
| 2026-04-28 19:32 | 45.20505 | 11.96951 | 7517 ft | 253 kts | 41° |
| 2026-04-28 19:33 | 45.21809 | 11.98587 | 7107 ft | 248 kts | 40° |
| 2026-04-28 19:33 | 45.23093 | 12.00191 | 6714 ft | 244 kts | 41° |
| 2026-04-28 19:33 | 45.24343 | 12.01771 | 6332 ft | 239 kts | 41° |
| 2026-04-28 19:33 | 45.25572 | 12.03331 | 6129 ft | 226 kts | 41° |
| 2026-04-28 19:34 | 45.26719 | 12.04788 | 5874 ft | 216 kts | 41° |
| 2026-04-28 19:34 | 45.27759 | 12.06109 | 5627 ft | 204 kts | 41° |
| 2026-04-28 19:34 | 45.28765 | 12.07387 | 5353 ft | 193 kts | 42° |
| 2026-04-28 19:34 | 45.29754 | 12.08644 | 5113 ft | 186 kts | 42° |
| 2026-04-28 19:35 | 45.30679 | 12.09822 | 4875 ft | 176 kts | 43° |
| 2026-04-28 19:35 | 45.31570 | 12.10955 | 4624 ft | 168 kts | 43° |
| 2026-04-28 19:35 | 45.32424 | 12.12042 | 4418 ft | 161 kts | 42° |
| 2026-04-28 19:35 | 45.33226 | 12.13064 | 4216 ft | 148 kts | 43° |
| 2026-04-28 19:36 | 45.33967 | 12.14007 | 4021 ft | 139 kts | 42° |
| 2026-04-28 19:36 | 45.34682 | 12.14919 | 3834 ft | 137 kts | 43° |
| 2026-04-28 19:36 | 45.35391 | 12.15824 | 3659 ft | 136 kts | 43° |
| 2026-04-28 19:36 | 45.36096 | 12.16723 | 3484 ft | 136 kts | 42° |
| 2026-04-28 19:37 | 45.36796 | 12.17616 | 3310 ft | 135 kts | 42° |
| 2026-04-28 19:37 | 45.37267 | 12.18218 | 3186 ft | 134 kts | 43° |
| 2026-04-28 19:37 | 45.38189 | 12.19395 | 2944 ft | 134 kts | 43° |
| 2026-04-28 19:37 | 45.38886 | 12.20285 | 2769 ft | 135 kts | 43° |
| 2026-04-28 19:38 | 45.39581 | 12.21174 | 2589 ft | 134 kts | 43° |
| 2026-04-28 19:38 | 45.40279 | 12.22067 | 2417 ft | 134 kts | 43° |
| 2026-04-28 19:38 | 45.40975 | 12.22956 | 2238 ft | 134 kts | 42° |
| 2026-04-28 19:38 | 45.41667 | 12.23842 | 2061 ft | 134 kts | 42° |
| 2026-04-28 19:39 | 45.42360 | 12.24729 | 1882 ft | 134 kts | 43° |
| 2026-04-28 19:39 | 45.43054 | 12.25617 | 1709 ft | 134 kts | 43° |
| 2026-04-28 19:39 | 45.43750 | 12.26508 | 1516 ft | 135 kts | 43° |
| 2026-04-28 19:39 | 45.44447 | 12.27401 | 1343 ft | 134 kts | 43° |
| 2026-04-28 19:40 | 45.45140 | 12.28289 | 1166 ft | 135 kts | 43° |
| 2026-04-28 19:40 | 45.45837 | 12.29182 | 987 ft | 134 kts | 43° |
| 2026-04-28 19:40 | 45.46537 | 12.30069 | 778 ft | 135 kts | 42° |
| 2026-04-28 19:40 | 45.47241 | 12.30953 | 568 ft | 135 kts | 43° |
| 2026-04-28 19:41 | 45.47938 | 12.31845 | 396 ft | 135 kts | 44° |
| 2026-04-28 19:41 | 45.48626 | 12.32750 | 231 ft | 134 kts | 44° |
| 2026-04-28 19:41 | 45.49319 | 12.33647 | 68 ft | 134 kts | 44° |
| 2026-04-28 19:41 | 45.49984 | 12.34512 | 17 ft | 118 kts | 43° |
| 2026-04-28 19:42 | 45.50477 | 12.35144 | 14 ft | 70 kts | 43° |
| 2026-04-28 19:42 | 45.50758 | 12.35422 | 17 ft | 42 kts | 25° |
| 2026-04-28 19:42 | 45.50969 | 12.35395 | 20 ft | 13 kts | 340° |
| 2026-04-28 19:42 | 45.50974 | 12.35310 | 17 ft | 17 kts | 257° |
| 2026-04-28 19:43 | 45.50896 | 12.35126 | 16 ft | 21 kts | 224° |
| 2026-04-28 19:43 | 45.50762 | 12.34955 | 16 ft | 30 kts | 221° |
| 2026-04-28 19:43 | 45.50632 | 12.34776 | 16 ft | 18 kts | 249° |
| 2026-04-28 19:43 | 45.50676 | 12.34682 | 16 ft | 14 kts | 314° |
| 2026-04-28 19:44 | 45.50757 | 12.34548 | 16 ft | 16 kts | 311° |
| 2026-04-28 19:44 | 45.50749 | 12.34478 | 16 ft | 4 kts | 214° |
| 2026-04-28 19:44 | 45.50728 | 12.34450 | 16 ft | 2 kts | 222° |
| 2026-04-28 19:44 | 45.50724 | 12.34444 | 16 ft | 0 kts | 222° |